createdAt,value
2022-08-28T00:00:09.402Z,14.78
2022-08-28T00:01:09.393Z,14.78
2022-08-28T00:02:09.390Z,14.78
2022-08-28T00:03:09.464Z,14.78
2022-08-28T00:04:09.393Z,14.78
2022-08-28T00:05:09.434Z,14.89
2022-08-28T00:06:09.385Z,14.78
2022-08-28T00:07:09.395Z,14.78
2022-08-28T00:08:09.443Z,14.89
2022-08-28T00:09:09.402Z,14.78
2022-08-28T00:10:09.387Z,14.78
2022-08-28T00:11:09.392Z,14.78
2022-08-28T00:12:09.388Z,14.61
2022-08-28T00:13:09.406Z,14.78
2022-08-28T00:14:09.390Z,14.78
2022-08-28T00:15:09.520Z,14.89
2022-08-28T00:16:09.428Z,14.89
2022-08-28T00:17:09.400Z,14.78
2022-08-28T00:18:09.458Z,15.06
2022-08-28T00:19:09.397Z,15.06
2022-08-28T00:20:09.404Z,14.89
2022-08-28T00:21:09.401Z,15.06
2022-08-28T00:22:09.404Z,14.89
2022-08-28T00:23:09.406Z,14.61
2022-08-28T00:24:09.401Z,14.78
2022-08-28T00:25:09.406Z,14.89
2022-08-28T00:26:09.409Z,15.06
2022-08-28T00:27:09.414Z,14.78
2022-08-28T00:28:09.424Z,15.06
2022-08-28T00:29:09.416Z,14.78
2022-08-28T00:30:09.411Z,14.61
2022-08-28T00:31:09.430Z,14.78
2022-08-28T00:32:09.417Z,14.78
2022-08-28T00:33:09.425Z,14.89
2022-08-28T00:34:09.422Z,15.06
2022-08-28T00:35:09.424Z,14.89
2022-08-28T00:36:09.415Z,14.78
2022-08-28T00:37:09.422Z,15.06
2022-08-28T00:38:09.489Z,15.17
2022-08-28T00:39:09.422Z,14.89
2022-08-28T00:40:09.498Z,14.89
2022-08-28T00:41:09.429Z,14.89
2022-08-28T00:42:09.429Z,15.17
2022-08-28T00:43:09.435Z,14.89
2022-08-28T00:44:09.434Z,15.17
2022-08-28T00:45:09.424Z,14.78
2022-08-28T00:46:09.508Z,15.06
2022-08-28T00:47:09.433Z,14.89
2022-08-28T00:48:09.487Z,14.89
2022-08-28T00:49:09.435Z,14.61
2022-08-28T00:50:09.438Z,14.89
2022-08-28T00:51:09.438Z,14.78
2022-08-28T00:52:11.752Z,14.89
2022-08-28T00:53:09.441Z,14.89
2022-08-28T00:54:09.446Z,14.61
2022-08-28T00:55:09.439Z,14.89
2022-08-28T00:56:10.323Z,14.61
2022-08-28T00:57:09.448Z,14.78
2022-08-28T00:58:09.450Z,14.61
2022-08-28T00:59:09.440Z,14.61
2022-08-28T01:00:09.449Z,15.06
2022-08-28T01:01:09.448Z,14.78
2022-08-28T01:02:09.458Z,14.78
2022-08-28T01:03:09.526Z,14.89
2022-08-28T01:04:09.456Z,14.78
2022-08-28T01:05:09.450Z,14.89
2022-08-28T01:06:09.450Z,14.61
2022-08-28T01:07:09.456Z,14.89
2022-08-28T01:08:09.513Z,14.89
2022-08-28T01:09:09.464Z,14.78
2022-08-28T01:10:09.459Z,15.17
2022-08-28T01:11:09.459Z,14.61
2022-08-28T01:12:09.464Z,14.89
2022-08-28T01:13:09.468Z,15.17
2022-08-28T01:14:09.471Z,15.06
2022-08-28T01:15:09.457Z,15.17
2022-08-28T01:16:09.607Z,14.89
2022-08-28T01:17:09.514Z,15.06
2022-08-28T01:18:09.566Z,14.89
2022-08-28T01:19:09.467Z,14.78
2022-08-28T01:20:09.471Z,14.89
2022-08-28T01:21:09.466Z,14.89
2022-08-28T01:22:09.472Z,14.89
2022-08-28T01:23:09.469Z,14.44
2022-08-28T01:24:09.468Z,14.78
2022-08-28T01:25:09.471Z,14.89
2022-08-28T01:26:10.866Z,15.06
2022-08-28T01:27:09.474Z,14.89
2022-08-28T01:28:09.474Z,14.78
2022-08-28T01:29:09.476Z,14.89
2022-08-28T01:30:09.481Z,15.17
2022-08-28T01:31:09.535Z,14.89
2022-08-28T01:32:09.489Z,15.06
2022-08-28T01:33:09.484Z,15.06
2022-08-28T01:34:09.480Z,15.17
2022-08-28T01:35:09.490Z,15.17
2022-08-28T01:36:09.491Z,15.17
2022-08-28T01:37:09.484Z,15.17
2022-08-28T01:38:09.560Z,15.17
2022-08-28T01:39:09.487Z,15.06
2022-08-28T01:40:09.533Z,15.17
2022-08-28T01:41:09.490Z,15.06
2022-08-28T01:42:09.485Z,15.17
2022-08-28T01:43:09.496Z,15.06
2022-08-28T01:44:09.510Z,15.06
2022-08-28T01:45:09.493Z,14.89
2022-08-28T01:46:09.551Z,14.89
2022-08-28T01:47:09.488Z,15.06
2022-08-28T01:48:09.585Z,14.89
2022-08-28T01:49:09.494Z,14.78
2022-08-28T01:50:09.495Z,15.17
2022-08-28T01:51:09.503Z,14.78
2022-08-28T01:52:09.499Z,15.06
2022-08-28T01:53:11.943Z,15.06
2022-08-28T01:54:09.815Z,14.89
2022-08-28T01:55:09.498Z,14.89
2022-08-28T01:56:09.502Z,14.78
2022-08-28T01:57:09.510Z,15.06
2022-08-28T01:58:09.653Z,14.89
2022-08-28T01:59:09.505Z,14.89
2022-08-28T02:00:09.507Z,15.06
2022-08-28T02:01:09.639Z,15.17
2022-08-28T02:02:09.586Z,15.06
2022-08-28T02:03:09.517Z,14.89
2022-08-28T02:04:09.572Z,15.06
2022-08-28T02:05:09.508Z,14.89
2022-08-28T02:06:09.502Z,14.89
2022-08-28T02:07:09.519Z,15.17
2022-08-28T02:08:09.599Z,14.89
2022-08-28T02:09:10.261Z,15.06
2022-08-28T02:10:09.506Z,14.89
2022-08-28T02:11:09.515Z,14.89
2022-08-28T02:12:09.513Z,14.89
2022-08-28T02:13:09.517Z,14.89
2022-08-28T02:14:09.519Z,15.17
2022-08-28T02:15:09.510Z,15.06
2022-08-28T02:16:09.738Z,15.06
2022-08-28T02:17:09.515Z,15.06
2022-08-28T02:18:09.605Z,15.17
2022-08-28T02:19:09.524Z,15.06
2022-08-28T02:20:09.522Z,15.17
2022-08-28T02:21:09.518Z,15.06
2022-08-28T02:22:09.533Z,15.06
2022-08-28T02:23:09.518Z,14.89
2022-08-28T02:24:09.532Z,14.89
2022-08-28T02:25:09.533Z,14.89
2022-08-28T02:26:09.530Z,15.06
2022-08-28T02:27:09.522Z,15.17
2022-08-28T02:28:09.593Z,14.89
2022-08-28T02:29:09.554Z,15.17
2022-08-28T02:30:09.533Z,15.06
2022-08-28T02:31:09.623Z,15.06
2022-08-28T02:32:09.535Z,15.06
2022-08-28T02:33:09.545Z,15.06
2022-08-28T02:34:09.550Z,14.89
2022-08-28T02:35:11.932Z,14.89
2022-08-28T02:36:09.539Z,15.06
2022-08-28T02:37:09.534Z,14.89
2022-08-28T02:38:09.593Z,15.06
2022-08-28T02:39:09.545Z,14.89
2022-08-28T02:40:09.591Z,15.06
2022-08-28T02:41:09.546Z,15.17
2022-08-28T02:42:09.546Z,14.89
2022-08-28T02:43:09.542Z,14.89
2022-08-28T02:44:09.547Z,15.06
2022-08-28T02:45:09.542Z,14.78
2022-08-28T02:46:09.595Z,15.06
2022-08-28T02:47:09.548Z,15.06
2022-08-28T02:48:15.983Z,14.89
2022-08-28T02:49:09.552Z,15.17
2022-08-28T02:50:09.548Z,15.06
2022-08-28T02:51:09.543Z,14.89
2022-08-28T02:52:09.557Z,15.06
2022-08-28T02:53:09.551Z,15.06
2022-08-28T02:54:09.557Z,14.89
2022-08-28T02:55:09.550Z,15.06
2022-08-28T02:56:09.567Z,15.17
2022-08-28T02:57:09.558Z,14.78
2022-08-28T02:58:09.720Z,15.17
2022-08-28T02:59:09.558Z,14.89
2022-08-28T03:00:09.556Z,15.06
2022-08-28T03:01:09.622Z,14.78
2022-08-28T03:02:09.582Z,15.06
2022-08-28T03:03:09.556Z,15.06
2022-08-28T03:04:09.566Z,15.17
2022-08-28T03:05:09.575Z,15.17
2022-08-28T03:06:09.569Z,15.06
2022-08-28T03:07:09.572Z,14.89
2022-08-28T03:08:09.591Z,15.17
2022-08-28T03:09:09.573Z,15.06
2022-08-28T03:10:09.571Z,14.89
2022-08-28T03:11:09.564Z,14.61
2022-08-28T03:12:09.587Z,15.06
2022-08-28T03:13:09.578Z,15.06
2022-08-28T03:14:09.576Z,15.17
2022-08-28T03:15:09.578Z,15.06
2022-08-28T03:16:09.579Z,15.06
2022-08-28T03:17:09.576Z,14.78
2022-08-28T03:18:11.078Z,14.78
2022-08-28T03:19:09.583Z,15.06
2022-08-28T03:20:09.580Z,15.06
2022-08-28T03:21:09.585Z,14.78
2022-08-28T03:22:09.588Z,15.17
2022-08-28T03:23:09.585Z,14.89
2022-08-28T03:24:09.587Z,14.89
2022-08-28T03:25:09.582Z,14.89
2022-08-28T03:26:09.590Z,15.17
2022-08-28T03:27:09.584Z,14.89
2022-08-28T03:28:09.644Z,15.17
2022-08-28T03:29:09.586Z,15.17
2022-08-28T03:30:09.591Z,15.06
2022-08-28T03:31:09.665Z,14.89
2022-08-28T03:32:09.598Z,14.89
2022-08-28T03:33:09.600Z,15.17
2022-08-28T03:34:09.598Z,15.06
2022-08-28T03:35:09.593Z,15.06
2022-08-28T03:36:09.596Z,15.06
2022-08-28T03:37:09.593Z,15.17
2022-08-28T03:38:09.637Z,15.17
2022-08-28T03:39:09.595Z,15.17
2022-08-28T03:40:09.627Z,14.89
2022-08-28T03:41:09.594Z,15.06
2022-08-28T03:42:09.603Z,15.17
2022-08-28T03:43:09.605Z,15.17
2022-08-28T03:44:09.605Z,15.06
2022-08-28T03:45:09.605Z,15.06
2022-08-28T03:46:09.638Z,15.06
2022-08-28T03:47:09.605Z,15.17
2022-08-28T03:48:09.684Z,15.06
2022-08-28T03:49:09.606Z,14.89
2022-08-28T03:50:09.966Z,14.89
2022-08-28T03:51:09.604Z,15.17
2022-08-28T03:52:09.602Z,14.78
2022-08-28T03:53:09.611Z,15.17
2022-08-28T03:54:09.607Z,14.89
2022-08-28T03:55:09.603Z,14.28
2022-08-28T03:56:09.608Z,14.78
2022-08-28T03:57:09.608Z,14.89
2022-08-28T03:58:09.678Z,15.17
2022-08-28T03:59:09.622Z,15.06
2022-08-28T04:00:09.638Z,14.89
2022-08-28T04:01:09.679Z,15.17
2022-08-28T04:02:09.622Z,15.17
2022-08-28T04:03:09.678Z,15.06
2022-08-28T04:04:09.623Z,15.17
2022-08-28T04:05:09.616Z,15.06
2022-08-28T04:06:09.614Z,15.06
2022-08-28T04:07:09.618Z,15.17
2022-08-28T04:08:09.657Z,14.89
2022-08-28T04:09:09.625Z,15.06
2022-08-28T04:10:09.623Z,15.06
2022-08-28T04:11:09.621Z,15.17
2022-08-28T04:12:09.614Z,15.06
2022-08-28T04:13:09.613Z,15.06
2022-08-28T04:14:09.618Z,14.78
2022-08-28T04:15:09.618Z,14.89
2022-08-28T04:16:09.668Z,14.89
2022-08-28T04:17:09.641Z,15.17
2022-08-28T04:18:09.705Z,15.17
2022-08-28T04:19:09.623Z,15.17
2022-08-28T04:20:09.623Z,14.89
2022-08-28T04:21:09.627Z,15.17
2022-08-28T04:22:09.616Z,15.06
2022-08-28T04:23:09.626Z,14.89
2022-08-28T04:24:09.980Z,15.17
2022-08-28T04:25:09.629Z,15.17
2022-08-28T04:26:09.617Z,15.17
2022-08-28T04:27:09.626Z,15.17
2022-08-28T04:28:09.693Z,15.06
2022-08-28T04:29:09.633Z,15.17
2022-08-28T04:30:09.979Z,15.17
2022-08-28T04:31:09.624Z,15.06
2022-08-28T04:32:09.698Z,15.17
2022-08-28T04:33:09.625Z,15.06
2022-08-28T04:34:09.633Z,15.06
2022-08-28T04:35:09.629Z,15.06
2022-08-28T04:36:09.631Z,14.89
2022-08-28T04:37:09.628Z,15.06
2022-08-28T04:38:09.631Z,14.78
2022-08-28T04:39:09.628Z,14.89
2022-08-28T04:40:09.665Z,15.06
2022-08-28T04:41:09.629Z,14.78
2022-08-28T04:42:09.624Z,15.06
2022-08-28T04:43:09.633Z,14.89
2022-08-28T04:44:09.631Z,14.89
2022-08-28T04:45:09.618Z,14.78
2022-08-28T04:46:09.746Z,15.06
2022-08-28T04:47:09.628Z,15.17
2022-08-28T04:48:10.526Z,14.89
2022-08-28T04:49:09.624Z,15.17
2022-08-28T04:50:09.633Z,14.78
2022-08-28T04:51:09.635Z,15.17
2022-08-28T04:52:09.635Z,14.89
2022-08-28T04:53:09.624Z,15.06
2022-08-28T04:54:09.633Z,15.06
2022-08-28T04:55:09.634Z,15.17
2022-08-28T04:56:09.641Z,15.17
2022-08-28T04:57:09.642Z,15.17
2022-08-28T04:58:09.633Z,15.06
2022-08-28T04:59:09.636Z,15.17
2022-08-28T05:00:09.642Z,15.06
2022-08-28T05:01:09.730Z,15.17
2022-08-28T05:02:09.688Z,15.06
2022-08-28T05:03:09.636Z,15.17
2022-08-28T05:04:09.640Z,15.06
2022-08-28T05:05:09.644Z,15.06
2022-08-28T05:06:09.644Z,15.06
2022-08-28T05:07:09.645Z,15.06
2022-08-28T05:08:09.685Z,15.06
2022-08-28T05:09:09.660Z,14.89
2022-08-28T05:10:09.647Z,14.89
2022-08-28T05:11:09.638Z,15.17
2022-08-28T05:12:09.648Z,15.06
2022-08-28T05:13:09.644Z,15.17
2022-08-28T05:14:12.700Z,15.06
2022-08-28T05:15:09.649Z,15.06
2022-08-28T05:16:09.694Z,15.17
2022-08-28T05:17:09.654Z,15.06
2022-08-28T05:18:09.647Z,15.17
2022-08-28T05:19:09.644Z,15.17
2022-08-28T05:20:09.656Z,15.17
2022-08-28T05:21:12.677Z,15.17
2022-08-28T05:22:09.651Z,15.17
2022-08-28T05:23:09.655Z,15.06
2022-08-28T05:24:09.654Z,15.17
2022-08-28T05:25:09.659Z,15.17
2022-08-28T05:26:09.657Z,15.17
2022-08-28T05:27:09.672Z,15.17
2022-08-28T05:28:11.343Z,15.17
2022-08-28T05:29:09.657Z,15.17
2022-08-28T05:30:09.668Z,15.28
2022-08-28T05:31:09.694Z,15.17
2022-08-28T05:32:09.665Z,15.17
2022-08-28T05:33:09.666Z,15.06
2022-08-28T05:34:09.665Z,15.17
2022-08-28T05:35:09.670Z,15.17
2022-08-28T05:36:09.662Z,15.17
2022-08-28T05:37:09.667Z,15.17
2022-08-28T05:38:09.727Z,15.17
2022-08-28T05:39:09.679Z,15.17
2022-08-28T05:40:09.717Z,15.17
2022-08-28T05:41:09.675Z,15.17
2022-08-28T05:42:09.667Z,15.17
2022-08-28T05:43:09.668Z,15.06
2022-08-28T05:44:09.670Z,15.17
2022-08-28T05:45:09.678Z,15.28
2022-08-28T05:46:09.719Z,15.28
2022-08-28T05:47:09.670Z,15.17
2022-08-28T05:48:09.720Z,15.28
2022-08-28T05:49:10.341Z,15.17
2022-08-28T05:50:09.678Z,15.06
2022-08-28T05:51:09.679Z,15.28
2022-08-28T05:52:09.678Z,14.89
2022-08-28T05:53:09.676Z,15.06
2022-08-28T05:54:09.683Z,15.17
2022-08-28T05:55:09.689Z,15.17
2022-08-28T05:56:09.690Z,15.17
2022-08-28T05:57:09.681Z,15.06
2022-08-28T05:58:09.688Z,15.28
2022-08-28T05:59:09.686Z,15.06
2022-08-28T06:00:09.685Z,15.28
2022-08-28T06:01:09.693Z,15.17
2022-08-28T06:02:09.696Z,15.28
2022-08-28T06:03:09.688Z,15.28
2022-08-28T06:04:09.746Z,15.28
2022-08-28T06:05:09.679Z,15.28
2022-08-28T06:06:09.689Z,15.28
2022-08-28T06:07:09.683Z,15.28
2022-08-28T06:08:09.683Z,15.28
2022-08-28T06:09:09.689Z,15.06
2022-08-28T06:10:10.682Z,15.28
2022-08-28T06:11:09.692Z,15.44
2022-08-28T06:12:09.691Z,15.17
2022-08-28T06:13:09.695Z,15.06
2022-08-28T06:14:09.692Z,15.28
2022-08-28T06:15:09.689Z,15.17
2022-08-28T06:16:09.771Z,15.28
2022-08-28T06:17:09.698Z,15.17
2022-08-28T06:18:09.689Z,15.28
2022-08-28T06:19:09.701Z,15.17
2022-08-28T06:20:09.698Z,15.44
2022-08-28T06:21:09.702Z,15.17
2022-08-28T06:22:09.702Z,15.44
2022-08-28T06:23:09.702Z,15.17
2022-08-28T06:24:09.705Z,15.17
2022-08-28T06:25:09.699Z,15.06
2022-08-28T06:26:09.703Z,15.17
2022-08-28T06:27:09.706Z,15.17
2022-08-28T06:28:09.736Z,15.28
2022-08-28T06:29:09.713Z,15.17
2022-08-28T06:30:09.705Z,15.17
2022-08-28T06:31:23.114Z,15.06
2022-08-28T06:32:09.782Z,15.17
2022-08-28T06:33:09.712Z,15.17
2022-08-28T06:34:09.715Z,15.17
2022-08-28T06:35:09.710Z,15.28
2022-08-28T06:36:09.707Z,15.17
2022-08-28T06:37:09.709Z,15.17
2022-08-28T06:38:09.744Z,15.28
2022-08-28T06:39:09.712Z,15.17
2022-08-28T06:40:09.715Z,15.17
2022-08-28T06:41:09.708Z,15.28
2022-08-28T06:42:09.724Z,15.17
2022-08-28T06:43:09.722Z,15.44
2022-08-28T06:44:09.716Z,15.17
2022-08-28T06:45:09.719Z,15.17
2022-08-28T06:46:09.863Z,15.44
2022-08-28T06:47:09.714Z,15.44
2022-08-28T06:48:09.716Z,15.44
2022-08-28T06:49:09.718Z,15.44
2022-08-28T06:50:09.716Z,15.61
2022-08-28T06:51:09.713Z,15.44
2022-08-28T06:52:09.723Z,15.61
2022-08-28T06:53:09.722Z,15.61
2022-08-28T06:54:09.722Z,15.61
2022-08-28T06:55:09.721Z,15.61
2022-08-28T06:56:09.728Z,15.44
2022-08-28T06:57:09.729Z,15.61
2022-08-28T06:58:09.722Z,15.61
2022-08-28T06:59:09.723Z,15.06
2022-08-28T07:00:09.730Z,15.44
2022-08-28T07:01:09.743Z,15.61
2022-08-28T07:02:09.828Z,15.61
2022-08-28T07:03:09.729Z,15.17
2022-08-28T07:04:09.730Z,15.61
2022-08-28T07:05:09.739Z,15.28
2022-08-28T07:06:09.737Z,15.61
2022-08-28T07:07:09.736Z,15.28
2022-08-28T07:08:09.733Z,15.61
2022-08-28T07:09:09.732Z,15.44
2022-08-28T07:10:09.739Z,15.61
2022-08-28T07:11:09.734Z,15.28
2022-08-28T07:12:09.741Z,15.44
2022-08-28T07:13:09.737Z,15.61
2022-08-28T07:14:09.746Z,15.44
2022-08-28T07:15:09.741Z,15.61
2022-08-28T07:16:09.824Z,15.44
2022-08-28T07:17:09.739Z,15.44
2022-08-28T07:18:09.748Z,15.28
2022-08-28T07:19:10.007Z,15.28
2022-08-28T07:20:09.742Z,15.61
2022-08-28T07:21:12.417Z,15.61
2022-08-28T07:22:09.744Z,15.44
2022-08-28T07:23:09.742Z,15.61
2022-08-28T07:24:09.743Z,15.44
2022-08-28T07:25:09.746Z,15.17
2022-08-28T07:26:09.744Z,15.61
2022-08-28T07:27:09.739Z,15.44
2022-08-28T07:28:09.752Z,15.61
2022-08-28T07:29:11.380Z,15.61
2022-08-28T07:30:09.752Z,15.61
2022-08-28T07:31:09.864Z,15.28
2022-08-28T07:32:09.753Z,15.61
2022-08-28T07:33:09.747Z,15.61
2022-08-28T07:34:09.755Z,15.61
2022-08-28T07:35:09.741Z,15.61
2022-08-28T07:36:12.318Z,15.44
2022-08-28T07:37:13.403Z,15.61
2022-08-28T07:38:09.747Z,15.44
2022-08-28T07:39:09.753Z,15.44
2022-08-28T07:40:09.786Z,15.61
2022-08-28T07:41:09.749Z,15.28
2022-08-28T07:42:09.758Z,15.89
2022-08-28T07:43:09.749Z,15.78
2022-08-28T07:44:09.754Z,15.89
2022-08-28T07:45:09.753Z,15.89
2022-08-28T07:46:09.813Z,16.06
2022-08-28T07:47:09.749Z,15.78
2022-08-28T07:48:11.584Z,15.89
2022-08-28T07:49:09.754Z,16.06
2022-08-28T07:50:09.747Z,15.78
2022-08-28T07:51:09.749Z,15.78
2022-08-28T07:52:09.753Z,15.28
2022-08-28T07:53:09.749Z,15.61
2022-08-28T07:54:11.644Z,15.61
2022-08-28T07:55:09.748Z,15.78
2022-08-28T07:56:09.747Z,16.06
2022-08-28T07:57:09.750Z,15.89
2022-08-28T07:58:09.782Z,15.89
2022-08-28T07:59:09.750Z,15.89
2022-08-28T08:00:09.748Z,16.06
2022-08-28T08:01:09.775Z,16.06
2022-08-28T08:02:09.751Z,16.22
2022-08-28T08:03:09.770Z,16.22
2022-08-28T08:04:09.737Z,16.06
2022-08-28T08:05:09.746Z,16.06
2022-08-28T08:06:09.750Z,16.06
2022-08-28T08:07:09.753Z,16.22
2022-08-28T08:08:09.758Z,16.22
2022-08-28T08:09:09.749Z,16.39
2022-08-28T08:10:09.751Z,16.06
2022-08-28T08:11:10.662Z,16.39
2022-08-28T08:12:10.280Z,16.56
2022-08-28T08:13:09.748Z,15.89
2022-08-28T08:14:09.752Z,16.39
2022-08-28T08:15:09.750Z,15.89
2022-08-28T08:16:09.783Z,16.56
2022-08-28T08:17:09.751Z,16.56
2022-08-28T08:18:09.748Z,16.22
2022-08-28T08:19:10.100Z,16.72
2022-08-28T08:20:09.753Z,16.89
2022-08-28T08:21:09.751Z,16.89
2022-08-28T08:22:09.750Z,17
2022-08-28T08:23:09.750Z,16.56
2022-08-28T08:24:09.752Z,16.72
2022-08-28T08:25:09.756Z,16.56
2022-08-28T08:26:09.757Z,16.72
2022-08-28T08:27:09.752Z,16.56
2022-08-28T08:28:09.747Z,16.72
2022-08-28T08:29:09.752Z,16.89
2022-08-28T08:30:09.752Z,17
2022-08-28T08:31:09.807Z,17.17
2022-08-28T08:32:09.755Z,17.33
2022-08-28T08:33:09.757Z,17.17
2022-08-28T08:34:09.757Z,17
2022-08-28T08:35:09.764Z,16.89
2022-08-28T08:36:09.755Z,16.89
2022-08-28T08:37:09.767Z,17
2022-08-28T08:38:09.762Z,17
2022-08-28T08:39:09.864Z,16.89
2022-08-28T08:40:10.769Z,16.89
2022-08-28T08:41:09.755Z,17
2022-08-28T08:42:09.767Z,17
2022-08-28T08:43:09.757Z,16.89
2022-08-28T08:44:09.764Z,17
2022-08-28T08:45:09.763Z,17
2022-08-28T08:46:09.832Z,17
2022-08-28T08:47:13.986Z,17
2022-08-28T08:48:09.804Z,17.33
2022-08-28T08:49:09.764Z,17.33
2022-08-28T08:50:09.763Z,17.5
2022-08-28T08:51:09.758Z,17.33
2022-08-28T08:52:09.764Z,17.5
2022-08-28T08:53:09.765Z,17.5
2022-08-28T08:54:09.764Z,17.5
2022-08-28T08:55:09.767Z,17.33
2022-08-28T08:56:09.769Z,17
2022-08-28T08:57:09.759Z,17
2022-08-28T08:58:09.794Z,17.17
2022-08-28T08:59:09.762Z,17.5
2022-08-28T09:00:13.660Z,17.33
2022-08-28T09:01:09.874Z,17
2022-08-28T09:02:09.773Z,16.72
2022-08-28T09:03:09.824Z,17.33
2022-08-28T09:04:09.776Z,16.89
2022-08-28T09:05:09.771Z,16.89
2022-08-28T09:06:09.770Z,17
2022-08-28T09:07:09.764Z,17.17
2022-08-28T09:08:09.769Z,17.17
2022-08-28T09:09:09.768Z,16.56
2022-08-28T09:10:09.775Z,16.89
2022-08-28T09:11:09.772Z,17
2022-08-28T09:12:09.775Z,17
2022-08-28T09:13:09.772Z,17
2022-08-28T09:14:09.775Z,17.33
2022-08-28T09:15:09.780Z,17.5
2022-08-28T09:16:09.823Z,17.5
2022-08-28T09:17:09.766Z,17.17
2022-08-28T09:18:09.818Z,17.33
2022-08-28T09:19:09.779Z,17.33
2022-08-28T09:20:09.777Z,17.33
2022-08-28T09:21:09.772Z,17.33
2022-08-28T09:22:09.778Z,17.94
2022-08-28T09:23:12.516Z,17.94
2022-08-28T09:24:10.917Z,17.94
2022-08-28T09:25:09.772Z,17.94
2022-08-28T09:26:09.778Z,17.94
2022-08-28T09:27:13.795Z,17.94
2022-08-28T09:28:09.773Z,17.94
2022-08-28T09:29:09.765Z,17.94
2022-08-28T09:30:09.776Z,17.94
2022-08-28T09:31:09.822Z,17.83
2022-08-28T09:32:09.770Z,17.94
2022-08-28T09:33:09.771Z,17.94
2022-08-28T09:34:09.775Z,17.94
2022-08-28T09:35:09.777Z,17.83
2022-08-28T09:36:09.775Z,17.94
2022-08-28T09:37:09.779Z,17.94
2022-08-28T09:38:09.767Z,18.17
2022-08-28T09:39:09.786Z,17.94
2022-08-28T09:40:09.855Z,17.94
2022-08-28T09:41:09.771Z,17.94
2022-08-28T09:42:09.779Z,18.17
2022-08-28T09:43:09.777Z,18.44
2022-08-28T09:44:09.773Z,18.44
2022-08-28T09:45:09.822Z,18.44
2022-08-28T09:46:09.805Z,18.44
2022-08-28T09:47:09.778Z,18.44
2022-08-28T09:48:09.775Z,17.94
2022-08-28T09:49:09.777Z,17.94
2022-08-28T09:50:09.784Z,18.28
2022-08-28T09:51:09.773Z,18.44
2022-08-28T09:52:09.778Z,18.78
2022-08-28T09:53:09.785Z,18.94
2022-08-28T09:54:09.778Z,18.94
2022-08-28T09:55:09.785Z,19.06
2022-08-28T09:56:09.778Z,18.94
2022-08-28T09:57:09.774Z,19.44
2022-08-28T09:58:09.838Z,19.28
2022-08-28T09:59:09.782Z,18.94
2022-08-28T10:00:09.787Z,18.78
2022-08-28T10:01:09.820Z,18.78
2022-08-28T10:02:09.833Z,18.94
2022-08-28T10:03:09.780Z,18.94
2022-08-28T10:04:09.840Z,18.94
2022-08-28T10:05:09.781Z,18.94
2022-08-28T10:06:09.781Z,18.78
2022-08-28T10:07:09.777Z,18.78
2022-08-28T10:08:09.777Z,18.78
2022-08-28T10:09:09.777Z,18.44
2022-08-28T10:10:09.783Z,18.44
2022-08-28T10:11:09.789Z,18.44
2022-08-28T10:12:09.779Z,18.94
2022-08-28T10:13:09.781Z,18.78
2022-08-28T10:14:09.774Z,18.94
2022-08-28T10:15:09.777Z,18.61
2022-08-28T10:16:09.986Z,18.94
2022-08-28T10:17:09.784Z,18.94
2022-08-28T10:18:09.786Z,18.61
2022-08-28T10:19:09.778Z,18.94
2022-08-28T10:20:09.778Z,18.78
2022-08-28T10:21:09.786Z,18.44
2022-08-28T10:22:09.783Z,18.94
2022-08-28T10:23:10.494Z,18.28
2022-08-28T10:24:09.779Z,18.94
2022-08-28T10:25:09.783Z,18.94
2022-08-28T10:26:09.779Z,19.44
2022-08-28T10:27:09.785Z,19.28
2022-08-28T10:28:09.838Z,19.44
2022-08-28T10:29:09.793Z,19.44
2022-08-28T10:30:13.084Z,19.56
2022-08-28T10:31:09.835Z,19.44
2022-08-28T10:32:09.795Z,19.44
2022-08-28T10:33:09.818Z,19.56
2022-08-28T10:34:09.798Z,19.78
2022-08-28T10:35:09.803Z,19.06
2022-08-28T10:36:27.135Z,19.44
2022-08-28T10:37:09.795Z,19.28
2022-08-28T10:38:09.870Z,19.44
2022-08-28T10:39:09.807Z,19.78
2022-08-28T10:40:09.845Z,19.94
2022-08-28T10:41:09.802Z,19.94
2022-08-28T10:42:09.801Z,20.22
2022-08-28T10:43:09.805Z,20.11
2022-08-28T10:44:09.804Z,20.33
2022-08-28T10:45:09.804Z,20.33
2022-08-28T10:46:09.854Z,20.56
2022-08-28T10:47:09.806Z,20.33
2022-08-28T10:48:09.856Z,20.83
2022-08-28T10:49:09.801Z,20.72
2022-08-28T10:50:09.808Z,20.83
2022-08-28T10:51:09.809Z,20.72
2022-08-28T10:52:09.817Z,20.33
2022-08-28T10:53:09.811Z,20.22
2022-08-28T10:54:09.820Z,20.22
2022-08-28T10:55:09.815Z,19.78
2022-08-28T10:56:09.823Z,19.78
2022-08-28T10:57:09.827Z,19.44
2022-08-28T10:58:11.620Z,19.78
2022-08-28T10:59:09.822Z,20.11
2022-08-28T11:00:09.823Z,20.33
2022-08-28T11:01:09.900Z,20.83
2022-08-28T11:02:09.861Z,20.33
2022-08-28T11:03:22.406Z,20.72
2022-08-28T11:04:09.830Z,20.72
2022-08-28T11:05:09.832Z,20.72
2022-08-28T11:06:09.826Z,20.33
2022-08-28T11:07:09.832Z,20.11
2022-08-28T11:08:09.881Z,20.22
2022-08-28T11:09:09.833Z,20.11
2022-08-28T11:10:09.833Z,20.33
2022-08-28T11:11:09.840Z,20.11
2022-08-28T11:12:09.836Z,20.33
2022-08-28T11:13:09.903Z,20.83
2022-08-28T11:14:09.842Z,20.33
2022-08-28T11:15:09.843Z,20.56
2022-08-28T11:16:09.843Z,20.56
2022-08-28T11:17:09.879Z,21
2022-08-28T11:18:09.842Z,21
2022-08-28T11:19:09.847Z,21.39
2022-08-28T11:20:09.850Z,21.56
2022-08-28T11:21:09.860Z,21
2022-08-28T11:22:09.855Z,21.39
2022-08-28T11:23:09.869Z,21.39
2022-08-28T11:24:09.854Z,21.56
2022-08-28T11:25:09.992Z,21.39
2022-08-28T11:26:09.855Z,21
2022-08-28T11:27:09.857Z,21.06
2022-08-28T11:28:09.851Z,21.06
2022-08-28T11:29:09.857Z,20.22
2022-08-28T11:30:09.869Z,20.56
2022-08-28T11:31:09.931Z,20.22
2022-08-28T11:32:09.864Z,20.39
2022-08-28T11:33:09.946Z,20.39
2022-08-28T11:34:09.858Z,20.56
2022-08-28T11:35:09.865Z,21.06
2022-08-28T11:36:09.865Z,21.22
2022-08-28T11:37:09.859Z,21.06
2022-08-28T11:38:09.867Z,20.56
2022-08-28T11:39:09.865Z,20.11
2022-08-28T11:40:09.900Z,19.83
2022-08-28T11:41:09.862Z,20.11
2022-08-28T11:42:09.863Z,20.22
2022-08-28T11:43:09.859Z,20.11
2022-08-28T11:44:09.905Z,20.56
2022-08-28T11:45:09.864Z,20.39
2022-08-28T11:46:09.908Z,20.22
2022-08-28T11:47:09.873Z,20.11
2022-08-28T11:48:09.865Z,20.22
2022-08-28T11:49:09.869Z,20.11
2022-08-28T11:50:09.870Z,19.94
2022-08-28T11:51:09.877Z,20.11
2022-08-28T11:52:09.879Z,20.11
2022-08-28T11:53:09.901Z,20.11
2022-08-28T11:54:09.881Z,20.11
2022-08-28T11:55:09.877Z,20.11
2022-08-28T11:56:09.878Z,20.56
2022-08-28T11:57:09.879Z,20.56
2022-08-28T11:59:10.012Z,20.39
2022-08-28T12:00:09.885Z,20.11
2022-08-28T12:01:09.889Z,20.22
2022-08-28T12:02:09.907Z,21.22
2022-08-28T12:03:09.986Z,21.06
2022-08-28T12:04:09.963Z,20.72
2022-08-28T12:05:09.891Z,20.83
2022-08-28T12:06:09.889Z,21.06
2022-08-28T12:07:09.890Z,21.22
2022-08-28T12:08:09.895Z,21.56
2022-08-28T12:09:09.892Z,20.83
2022-08-28T12:10:09.893Z,20.83
2022-08-28T12:11:09.895Z,20.83
2022-08-28T12:12:09.892Z,20.56
2022-08-28T12:13:09.970Z,20.22
2022-08-28T12:14:09.890Z,20.56
2022-08-28T12:15:09.899Z,21.06
2022-08-28T12:16:09.940Z,21.06
2022-08-28T12:17:09.897Z,21.56
2022-08-28T12:18:09.901Z,21.56
2022-08-28T12:19:09.888Z,21.56
2022-08-28T12:20:09.891Z,21.56
2022-08-28T12:21:09.896Z,21.56
2022-08-28T12:22:09.900Z,21.56
2022-08-28T12:23:09.904Z,21.56
2022-08-28T12:24:10.086Z,21.56
2022-08-28T12:25:09.896Z,21.06
2022-08-28T12:26:09.902Z,21.22
2022-08-28T12:27:09.906Z,21.39
2022-08-28T12:28:12.871Z,22.06
2022-08-28T12:29:09.907Z,22.22
2022-08-28T12:30:09.909Z,21.39
2022-08-28T12:31:09.954Z,21.06
2022-08-28T12:32:09.914Z,21.56
2022-08-28T12:33:09.907Z,22.78
2022-08-28T12:34:09.909Z,23.11
2022-08-28T12:35:09.906Z,23.67
2022-08-28T12:36:09.914Z,24.17
2022-08-28T12:37:09.912Z,24.17
2022-08-28T12:38:09.915Z,22.78
2022-08-28T12:39:09.909Z,23.11
2022-08-28T12:40:09.955Z,23.11
2022-08-28T12:41:09.923Z,23.28
2022-08-28T12:42:09.911Z,23.67
2022-08-28T12:43:10.016Z,23.67
2022-08-28T12:44:09.909Z,23.28
2022-08-28T12:45:09.924Z,24.17
2022-08-28T12:46:18.859Z,24.17
2022-08-28T12:47:09.915Z,24
2022-08-28T12:48:09.924Z,24.17
2022-08-28T12:49:09.924Z,23.28
2022-08-28T12:50:09.926Z,22.61
2022-08-28T12:51:09.922Z,22.61
2022-08-28T12:52:09.921Z,22.61
2022-08-28T12:53:09.919Z,23.11
2022-08-28T12:54:09.923Z,23.44
2022-08-28T12:55:09.927Z,23.44
2022-08-28T12:56:09.926Z,22.61